sensor_id;sensor_type;location;lat;lon;timestamp;pressure;altitude;pressure_sealevel;temperature;humidity
46045;BME280;31781;54.094;13.428;2024-01-06T00:03:15;100984.38;;;0.22;72.36
46045;BME280;31781;54.094;13.428;2024-01-06T00:09:18;100999.59;;;0.21;72.62
46045;BME280;31781;54.094;13.428;2024-01-06T00:15:20;101004.38;;;0.18;72.74
46045;BME280;31781;54.094;13.428;2024-01-06T00:21:21;101004.50;;;0.16;73.40
46045;BME280;31781;54.094;13.428;2024-01-06T00:27:24;101013.38;;;0.17;73.49
46045;BME280;31781;54.094;13.428;2024-01-06T00:33:26;101020.53;;;0.16;73.14
46045;BME280;31781;54.094;13.428;2024-01-06T00:39:28;101019.69;;;0.16;73.10
46045;BME280;31781;54.094;13.428;2024-01-06T00:45:31;101036.75;;;0.15;72.49
46045;BME280;31781;54.094;13.428;2024-01-06T00:51:32;101033.22;;;0.14;72.71
46045;BME280;31781;54.094;13.428;2024-01-06T00:57:37;101042.22;;;0.13;73.50
46045;BME280;31781;54.094;13.428;2024-01-06T01:03:40;101039.44;;;0.15;73.28
46045;BME280;31781;54.094;13.428;2024-01-06T01:09:42;101042.81;;;0.17;73.44
46045;BME280;31781;54.094;13.428;2024-01-06T01:15:44;101049.97;;;0.16;73.18
46045;BME280;31781;54.094;13.428;2024-01-06T01:21:47;101051.81;;;0.16;73.71
46045;BME280;31781;54.094;13.428;2024-01-06T01:27:48;101052.53;;;0.18;73.28
46045;BME280;31781;54.094;13.428;2024-01-06T01:33:50;101053.22;;;0.20;73.71
46045;BME280;31781;54.094;13.428;2024-01-06T01:39:53;101056.75;;;0.20;73.85
46045;BME280;31781;54.094;13.428;2024-01-06T01:45:55;101059.16;;;0.23;73.88
46045;BME280;31781;54.094;13.428;2024-01-06T01:51:57;101063.53;;;0.24;73.63
46045;BME280;31781;54.094;13.428;2024-01-06T01:58:00;101059.16;;;0.23;73.92
46045;BME280;31781;54.094;13.428;2024-01-06T02:04:03;101061.72;;;0.25;73.82
46045;BME280;31781;54.094;13.428;2024-01-06T02:10:06;101071.69;;;0.23;73.65
46045;BME280;31781;54.094;13.428;2024-01-06T02:16:09;101066.22;;;0.24;73.34
46045;BME280;31781;54.094;13.428;2024-01-06T02:22:12;101075.94;;;0.25;73.70
46045;BME280;31781;54.094;13.428;2024-01-06T02:28:14;101075.94;;;0.25;72.90
46045;BME280;31781;54.094;13.428;2024-01-06T02:34:15;101088.59;;;0.23;73.44
46045;BME280;31781;54.094;13.428;2024-01-06T02:40:18;101086.75;;;0.24;73.83
46045;BME280;31781;54.094;13.428;2024-01-06T02:46:20;101100.88;;;0.26;73.58
46045;BME280;31781;54.094;13.428;2024-01-06T02:52:22;101105.22;;;0.27;73.52
46045;BME280;31781;54.094;13.428;2024-01-06T02:58:25;101101.56;;;0.28;73.76
46045;BME280;31781;54.094;13.428;2024-01-06T03:04:26;101112.28;;;0.28;73.73
46045;BME280;31781;54.094;13.428;2024-01-06T03:10:28;101107.63;;;0.30;73.35
46045;BME280;31781;54.094;13.428;2024-01-06T03:16:31;101108.34;;;0.32;73.30
46045;BME280;31781;54.094;13.428;2024-01-06T03:22:32;101126.25;;;0.31;72.97
46045;BME280;31781;54.094;13.428;2024-01-06T03:28:34;101135.97;;;0.32;73.39
46045;BME280;31781;54.094;13.428;2024-01-06T03:34:37;101138.06;;;0.29;73.88
46045;BME280;31781;54.094;13.428;2024-01-06T03:40:39;101143.41;;;0.29;73.61
46045;BME280;31781;54.094;13.428;2024-01-06T03:46:40;101143.53;;;0.27;72.96
46045;BME280;31781;54.094;13.428;2024-01-06T03:52:43;101145.25;;;0.28;73.87
46045;BME280;31781;54.094;13.428;2024-01-06T03:58:45;101162.84;;;0.31;73.19
46045;BME280;31781;54.094;13.428;2024-01-06T04:04:47;101153.84;;;0.32;73.49
46045;BME280;31781;54.094;13.428;2024-01-06T04:10:50;101163.31;;;0.36;73.67
46045;BME280;31781;54.094;13.428;2024-01-06T04:16:51;101167.53;;;0.38;73.42
46045;BME280;31781;54.094;13.428;2024-01-06T04:22:53;101163.50;;;0.44;73.14
46045;BME280;31781;54.094;13.428;2024-01-06T04:28:56;101166.75;;;0.47;72.93
46045;BME280;31781;54.094;13.428;2024-01-06T04:34:58;101161.53;;;0.46;72.51
46045;BME280;31781;54.094;13.428;2024-01-06T04:41:00;101168.41;;;0.48;71.89
46045;BME280;31781;54.094;13.428;2024-01-06T04:47:03;101170.72;;;0.53;72.16
46045;BME280;31781;54.094;13.428;2024-01-06T04:53:05;101172.53;;;0.53;70.98
46045;BME280;31781;54.094;13.428;2024-01-06T04:59:07;101177.88;;;0.53;72.11
46045;BME280;31781;54.094;13.428;2024-01-06T05:05:09;101197.47;;;0.53;72.02
46045;BME280;31781;54.094;13.428;2024-01-06T05:11:11;101200.16;;;0.53;71.30
46045;BME280;31781;54.094;13.428;2024-01-06T05:17:13;101197.47;;;0.53;71.36
46045;BME280;31781;54.094;13.428;2024-01-06T05:23:16;101199.47;;;0.51;71.85
46045;BME280;31781;54.094;13.428;2024-01-06T05:29:17;101216.38;;;0.52;71.00
46045;BME280;31781;54.094;13.428;2024-01-06T05:35:19;101214.41;;;0.54;71.22
46045;BME280;31781;54.094;13.428;2024-01-06T05:41:22;101226.06;;;0.53;71.81
46045;BME280;31781;54.094;13.428;2024-01-06T05:47:23;101246.25;;;0.57;70.91
46045;BME280;31781;54.094;13.428;2024-01-06T05:53:25;101261.06;;;0.61;71.03
46045;BME280;31781;54.094;13.428;2024-01-06T05:59:28;101260.81;;;0.64;70.37
46045;BME280;31781;54.094;13.428;2024-01-06T06:05:29;101258.00;;;0.65;69.95
46045;BME280;31781;54.094;13.428;2024-01-06T06:11:31;101271.97;;;0.69;69.73
46045;BME280;31781;54.094;13.428;2024-01-06T06:17:34;101269.31;;;0.69;69.24
46045;BME280;31781;54.094;13.428;2024-01-06T06:23:35;101293.00;;;0.73;69.25
46045;BME280;31781;54.094;13.428;2024-01-06T06:29:37;101299.06;;;0.75;68.32
46045;BME280;31781;54.094;13.428;2024-01-06T06:35:40;101305.00;;;0.79;68.22
46045;BME280;31781;54.094;13.428;2024-01-06T06:41:42;101328.00;;;0.81;68.76
46045;BME280;31781;54.094;13.428;2024-01-06T06:47:43;101334.19;;;0.82;68.92
46045;BME280;31781;54.094;13.428;2024-01-06T06:53:46;101357.22;;;0.84;68.68
46045;BME280;31781;54.094;13.428;2024-01-06T06:59:51;101373.28;;;0.84;68.28
46045;BME280;31781;54.094;13.428;2024-01-06T07:05:53;101384.00;;;0.84;69.01
46045;BME280;31781;54.094;13.428;2024-01-06T07:11:56;101383.84;;;0.86;68.88
46045;BME280;31781;54.094;13.428;2024-01-06T07:17:57;101387.38;;;0.86;68.78
46045;BME280;31781;54.094;13.428;2024-01-06T07:23:59;101403.59;;;0.85;68.33
46045;BME280;31781;54.094;13.428;2024-01-06T07:30:03;101405.28;;;0.86;68.33
46045;BME280;31781;54.094;13.428;2024-01-06T07:36:05;101409.78;;;0.85;67.68
46045;BME280;31781;54.094;13.428;2024-01-06T07:42:07;101408.69;;;0.88;68.08
46045;BME280;31781;54.094;13.428;2024-01-06T07:48:10;101417.44;;;0.90;67.29
46045;BME280;31781;54.094;13.428;2024-01-06T07:54:12;101419.25;;;0.89;67.72
46045;BME280;31781;54.094;13.428;2024-01-06T08:00:14;101435.22;;;0.91;67.21
46045;BME280;31781;54.094;13.428;2024-01-06T08:06:17;101449.22;;;0.94;67.13
46045;BME280;31781;54.094;13.428;2024-01-06T08:12:19;101457.13;;;0.96;66.92
46045;BME280;31781;54.094;13.428;2024-01-06T08:18:20;101454.28;;;0.97;67.63
46045;BME280;31781;54.094;13.428;2024-01-06T08:24:24;101460.13;;;1.03;67.72
46045;BME280;31781;54.094;13.428;2024-01-06T08:30:25;101472.28;;;1.07;67.33
46045;BME280;31781;54.094;13.428;2024-01-06T08:36:27;101489.06;;;1.09;67.52
46045;BME280;31781;54.094;13.428;2024-01-06T08:42:30;101490.63;;;1.11;67.13
46045;BME280;31781;54.094;13.428;2024-01-06T08:48:32;101487.84;;;1.13;67.53
46045;BME280;31781;54.094;13.428;2024-01-06T08:54:36;101500.00;;;1.17;66.99
46045;BME280;31781;54.094;13.428;2024-01-06T09:00:39;101518.50;;;1.20;66.92
46045;BME280;31781;54.094;13.428;2024-01-06T09:06:41;101538.00;;;1.22;67.68
46045;BME280;31781;54.094;13.428;2024-01-06T09:12:42;101545.78;;;1.25;66.54
46045;BME280;31781;54.094;13.428;2024-01-06T09:18:45;101560.63;;;1.29;67.11
46045;BME280;31781;54.094;13.428;2024-01-06T09:24:47;101571.94;;;1.32;68.01
46045;BME280;31781;54.094;13.428;2024-01-06T09:30:49;101572.63;;;1.34;67.70
46045;BME280;31781;54.094;13.428;2024-01-06T09:36:52;101594.69;;;1.38;67.10
46045;BME280;31781;54.094;13.428;2024-01-06T09:42:54;101599.94;;;1.39;66.86
46045;BME280;31781;54.094;13.428;2024-01-06T09:48:56;101612.22;;;1.42;67.19
46045;BME280;31781;54.094;13.428;2024-01-06T09:55:02;101614.50;;;1.46;67.48
46045;BME280;31781;54.094;13.428;2024-01-06T10:01:06;101623.16;;;1.50;67.08
46045;BME280;31781;54.094;13.428;2024-01-06T10:07:08;101623.00;;;1.52;66.51
46045;BME280;31781;54.094;13.428;2024-01-06T10:13:11;101630.06;;;1.53;66.94
46045;BME280;31781;54.094;13.428;2024-01-06T10:19:13;101625.44;;;1.55;66.29
46045;BME280;31781;54.094;13.428;2024-01-06T10:25:15;101639.44;;;1.58;66.75
46045;BME280;31781;54.094;13.428;2024-01-06T10:31:18;101638.22;;;1.62;66.78
46045;BME280;31781;54.094;13.428;2024-01-06T10:37:20;101644.81;;;1.58;66.12
46045;BME280;31781;54.094;13.428;2024-01-06T10:43:23;101642.13;;;1.58;65.97
46045;BME280;31781;54.094;13.428;2024-01-06T10:49:28;101638.34;;;1.61;66.68
46045;BME280;31781;54.094;13.428;2024-01-06T10:55:31;101639.91;;;1.63;65.82
46045;BME280;31781;54.094;13.428;2024-01-06T11:01:34;101645.13;;;1.65;66.58
46045;BME280;31781;54.094;13.428;2024-01-06T11:07:39;101650.50;;;1.65;66.45
46045;BME280;31781;54.094;13.428;2024-01-06T11:13:41;101651.34;;;1.65;66.27
46045;BME280;31781;54.094;13.428;2024-01-06T11:19:43;101656.72;;;1.65;65.83
46045;BME280;31781;54.094;13.428;2024-01-06T11:25:47;101661.94;;;1.67;66.39
46045;BME280;31781;54.094;13.428;2024-01-06T11:32:19;101648.28;;;1.70;66.25
46045;BME280;31781;54.094;13.428;2024-01-06T11:38:22;101652.94;;;1.68;65.36
46045;BME280;31781;54.094;13.428;2024-01-06T11:44:27;101644.88;;;1.68;65.35
46045;BME280;31781;54.094;13.428;2024-01-06T11:50:32;101645.72;;;1.68;66.05
46045;BME280;31781;54.094;13.428;2024-01-06T11:56:34;101642.94;;;1.70;65.92
46045;BME280;31781;54.094;13.428;2024-01-06T12:02:37;101634.72;;;1.71;65.61
46045;BME280;31781;54.094;13.428;2024-01-06T12:08:38;101631.19;;;1.71;65.33
46045;BME280;31781;54.094;13.428;2024-01-06T12:14:41;101641.06;;;1.70;64.80
46045;BME280;31781;54.094;13.428;2024-01-06T12:20:44;101636.81;;;1.68;64.75
46045;BME280;31781;54.094;13.428;2024-01-06T12:26:46;101648.41;;;1.68;65.26
46045;BME280;31781;54.094;13.428;2024-01-06T12:32:49;101641.34;;;1.67;65.00
46045;BME280;31781;54.094;13.428;2024-01-06T12:38:52;101644.88;;;1.68;65.09
46045;BME280;31781;54.094;13.428;2024-01-06T12:44:54;101645.13;;;1.65;64.65
46045;BME280;31781;54.094;13.428;2024-01-06T12:50:55;101653.31;;;1.63;64.85
46045;BME280;31781;54.094;13.428;2024-01-06T12:56:58;101659.69;;;1.62;65.39
46045;BME280;31781;54.094;13.428;2024-01-06T13:03:00;101660.91;;;1.58;64.71
46045;BME280;31781;54.094;13.428;2024-01-06T13:09:02;101688.69;;;1.57;64.83
46045;BME280;31781;54.094;13.428;2024-01-06T13:15:06;101695.28;;;1.53;65.00
46045;BME280;31781;54.094;13.428;2024-01-06T13:21:08;101691.91;;;1.51;64.59
46045;BME280;31781;54.094;13.428;2024-01-06T13:27:09;101690.31;;;1.48;64.80
46045;BME280;31781;54.094;13.428;2024-01-06T13:33:12;101695.06;;;1.45;65.31
46045;BME280;31781;54.094;13.428;2024-01-06T13:39:14;101710.31;;;1.44;65.44
46045;BME280;31781;54.094;13.428;2024-01-06T13:45:16;101718.63;;;1.41;65.31
46045;BME280;31781;54.094;13.428;2024-01-06T13:51:19;101731.16;;;1.41;64.65
46045;BME280;31781;54.094;13.428;2024-01-06T13:57:21;101740.31;;;1.38;64.94
46045;BME280;31781;54.094;13.428;2024-01-06T14:03:23;101738.50;;;1.39;65.01
46045;BME280;31781;54.094;13.428;2024-01-06T14:09:26;101736.06;;;1.36;64.36
46045;BME280;31781;54.094;13.428;2024-01-06T14:15:27;101750.56;;;1.33;64.50
46045;BME280;31781;54.094;13.428;2024-01-06T14:21:29;101765.06;;;1.31;64.13
46045;BME280;31781;54.094;13.428;2024-01-06T14:27:32;101782.13;;;1.30;64.36
46045;BME280;31781;54.094;13.428;2024-01-06T14:33:34;101787.63;;;1.28;64.38
46045;BME280;31781;54.094;13.428;2024-01-06T14:39:36;101793.25;;;1.25;63.83
46045;BME280;31781;54.094;13.428;2024-01-06T14:45:38;101803.22;;;1.23;63.85
46045;BME280;31781;54.094;13.428;2024-01-06T14:51:40;101807.00;;;1.21;63.77
46045;BME280;31781;54.094;13.428;2024-01-06T14:57:42;101818.84;;;1.18;64.22
46045;BME280;31781;54.094;13.428;2024-01-06T15:03:45;101821.88;;;1.14;63.48
46045;BME280;31781;54.094;13.428;2024-01-06T15:09:46;101838.22;;;1.11;63.17
46045;BME280;31781;54.094;13.428;2024-01-06T15:15:48;101836.75;;;1.07;63.72
46045;BME280;31781;54.094;13.428;2024-01-06T15:21:53;101860.97;;;1.05;63.67
46045;BME280;31781;54.094;13.428;2024-01-06T15:27:55;101863.66;;;1.05;63.87
46045;BME280;31781;54.094;13.428;2024-01-06T15:33:56;101866.59;;;1.02;63.49
46045;BME280;31781;54.094;13.428;2024-01-06T15:39:59;101856.97;;;1.00;63.58
46045;BME280;31781;54.094;13.428;2024-01-06T15:46:02;101872.28;;;0.97;63.43
46045;BME280;31781;54.094;13.428;2024-01-06T15:52:04;101866.06;;;0.97;63.74
46045;BME280;31781;54.094;13.428;2024-01-06T15:58:07;101871.44;;;0.97;64.14
46045;BME280;31781;54.094;13.428;2024-01-06T16:04:09;101875.94;;;0.96;63.48
46045;BME280;31781;54.094;13.428;2024-01-06T16:10:10;101889.56;;;0.93;64.14
46045;BME280;31781;54.094;13.428;2024-01-06T16:16:13;101896.75;;;0.93;63.76
46045;BME280;31781;54.094;13.428;2024-01-06T16:22:15;101898.47;;;0.94;64.79
46045;BME280;31781;54.094;13.428;2024-01-06T16:28:18;101917.22;;;0.94;64.47
46045;BME280;31781;54.094;13.428;2024-01-06T16:34:21;101914.44;;;0.95;64.41
46045;BME280;31781;54.094;13.428;2024-01-06T16:40:23;101916.38;;;0.93;64.18
46045;BME280;31781;54.094;13.428;2024-01-06T16:46:25;101922.59;;;0.94;64.66
46045;BME280;31781;54.094;13.428;2024-01-06T16:52:28;101920.78;;;0.94;65.17
46045;BME280;31781;54.094;13.428;2024-01-06T16:58:29;101933.19;;;0.95;64.72
46045;BME280;31781;54.094;13.428;2024-01-06T17:04:31;101935.88;;;0.95;64.66
46045;BME280;31781;54.094;13.428;2024-01-06T17:10:34;101942.94;;;0.96;65.40
46045;BME280;31781;54.094;13.428;2024-01-06T17:16:36;101950.75;;;1.00;65.32
46045;BME280;31781;54.094;13.428;2024-01-06T17:22:38;101963.16;;;1.01;64.93
46045;BME280;31781;54.094;13.428;2024-01-06T17:28:41;101964.88;;;1.02;65.12
46045;BME280;31781;54.094;13.428;2024-01-06T17:34:42;101963.06;;;1.02;64.79
46045;BME280;31781;54.094;13.428;2024-01-06T17:40:44;101983.63;;;1.02;64.55
46045;BME280;31781;54.094;13.428;2024-01-06T17:46:48;101986.41;;;1.00;64.65
46045;BME280;31781;54.094;13.428;2024-01-06T17:52:50;101997.03;;;1.02;64.99
46045;BME280;31781;54.094;13.428;2024-01-06T17:58:52;102004.22;;;1.01;64.75
46045;BME280;31781;54.094;13.428;2024-01-06T18:04:55;101999.72;;;1.02;64.48
46045;BME280;31781;54.094;13.428;2024-01-06T18:10:57;102004.34;;;1.00;65.50
46045;BME280;31781;54.094;13.428;2024-01-06T18:16:59;102000.81;;;0.99;65.20
46045;BME280;31781;54.094;13.428;2024-01-06T18:23:02;102006.16;;;0.99;64.81
46045;BME280;31781;54.094;13.428;2024-01-06T18:29:03;102017.00;;;0.97;65.16
46045;BME280;31781;54.094;13.428;2024-01-06T18:35:05;102023.31;;;0.96;64.63
46045;BME280;31781;54.094;13.428;2024-01-06T18:41:08;102010.16;;;0.93;64.61
46045;BME280;31781;54.094;13.428;2024-01-06T18:47:10;102038.78;;;0.93;65.13
46045;BME280;31781;54.094;13.428;2024-01-06T18:53:11;102054.00;;;0.92;64.63
46045;BME280;31781;54.094;13.428;2024-01-06T18:59:14;102058.72;;;0.89;64.34
46045;BME280;31781;54.094;13.428;2024-01-06T19:05:16;102058.84;;;0.87;64.83
46045;BME280;31781;54.094;13.428;2024-01-06T19:11:18;102057.75;;;0.90;65.07
46045;BME280;31781;54.094;13.428;2024-01-06T19:17:21;102068.47;;;0.90;65.51
46045;BME280;31781;54.094;13.428;2024-01-06T19:23:23;102068.47;;;0.90;65.07
46045;BME280;31781;54.094;13.428;2024-01-06T19:29:24;102072.97;;;0.89;65.32
46045;BME280;31781;54.094;13.428;2024-01-06T19:35:27;102068.47;;;0.90;65.51
46045;BME280;31781;54.094;13.428;2024-01-06T19:41:29;102059.72;;;0.88;64.28
46045;BME280;31781;54.094;13.428;2024-01-06T19:47:31;102074.94;;;0.87;65.53
46045;BME280;31781;54.094;13.428;2024-01-06T19:53:34;102084.69;;;0.88;65.57
46045;BME280;31781;54.094;13.428;2024-01-06T19:59:35;102089.19;;;0.88;65.93
46045;BME280;31781;54.094;13.428;2024-01-06T20:05:37;102098.91;;;0.89;65.85
46045;BME280;31781;54.094;13.428;2024-01-06T20:11:40;102111.34;;;0.90;66.25
46045;BME280;31781;54.094;13.428;2024-01-06T20:17:41;102114.03;;;0.90;65.06
46045;BME280;31781;54.094;13.428;2024-01-06T20:23:43;102107.94;;;0.88;65.60
46045;BME280;31781;54.094;13.428;2024-01-06T20:29:46;102115.00;;;0.89;65.23
46045;BME280;31781;54.094;13.428;2024-01-06T20:35:48;102119.28;;;0.91;65.59
46045;BME280;31781;54.094;13.428;2024-01-06T20:41:49;102113.78;;;0.93;65.09
46045;BME280;31781;54.094;13.428;2024-01-06T20:47:52;102116.47;;;0.93;66.02
46045;BME280;31781;54.094;13.428;2024-01-06T20:53:54;102114.66;;;0.93;65.74
46045;BME280;31781;54.094;13.428;2024-01-06T20:59:56;102125.28;;;0.95;65.45
46045;BME280;31781;54.094;13.428;2024-01-06T21:05:59;102140.41;;;0.96;65.31
46045;BME280;31781;54.094;13.428;2024-01-06T21:12:01;102154.53;;;0.98;65.20
46045;BME280;31781;54.094;13.428;2024-01-06T21:18:02;102156.97;;;1.01;65.20
46045;BME280;31781;54.094;13.428;2024-01-06T21:24:06;102149.88;;;1.00;65.11
46045;BME280;31781;54.094;13.428;2024-01-06T21:30:08;102154.41;;;1.00;65.18
46045;BME280;31781;54.094;13.428;2024-01-06T21:36:10;102166.19;;;0.97;65.05
46045;BME280;31781;54.094;13.428;2024-01-06T21:42:13;102170.50;;;1.00;65.75
46045;BME280;31781;54.094;13.428;2024-01-06T21:48:15;102168.66;;;1.00;64.99
46045;BME280;31781;54.094;13.428;2024-01-06T21:54:16;102162.31;;;1.01;65.07
46045;BME280;31781;54.094;13.428;2024-01-06T22:00:19;102172.31;;;0.99;64.86
46045;BME280;31781;54.094;13.428;2024-01-06T22:06:21;102183.03;;;0.99;65.01
46045;BME280;31781;54.094;13.428;2024-01-06T22:12:23;102201.66;;;1.01;64.99
46045;BME280;31781;54.094;13.428;2024-01-06T22:18:26;102192.03;;;0.98;64.83
46045;BME280;31781;54.094;13.428;2024-01-06T22:24:27;102200.72;;;1.02;64.10
46045;BME280;31781;54.094;13.428;2024-01-06T22:30:29;102204.34;;;1.01;64.58
46045;BME280;31781;54.094;13.428;2024-01-06T22:36:32;102213.25;;;1.01;64.58
46045;BME280;31781;54.094;13.428;2024-01-06T22:42:34;102221.91;;;1.05;64.51
46045;BME280;31781;54.094;13.428;2024-01-06T22:48:36;102232.41;;;1.08;63.75
46045;BME280;31781;54.094;13.428;2024-01-06T22:54:39;102235.09;;;1.08;63.62
46045;BME280;31781;54.094;13.428;2024-01-06T23:00:41;102240.34;;;1.09;63.63
46045;BME280;31781;54.094;13.428;2024-01-06T23:06:43;102231.34;;;1.10;64.10
46045;BME280;31781;54.094;13.428;2024-01-06T23:12:46;102241.09;;;1.11;64.86
46045;BME280;31781;54.094;13.428;2024-01-06T23:18:47;102241.72;;;1.15;64.76
46045;BME280;31781;54.094;13.428;2024-01-06T23:24:49;102241.53;;;1.18;64.08
46045;BME280;31781;54.094;13.428;2024-01-06T23:30:52;102249.44;;;1.19;63.92
46045;BME280;31781;54.094;13.428;2024-01-06T23:36:54;102253.72;;;1.22;64.52
46045;BME280;31781;54.094;13.428;2024-01-06T23:42:55;102256.06;;;1.26;64.31
46045;BME280;31781;54.094;13.428;2024-01-06T23:48:58;102264.97;;;1.27;64.90
46045;BME280;31781;54.094;13.428;2024-01-06T23:55:00;102270.09;;;1.30;63.88
